createdAt,value
2022-11-08T00:01:32.244Z,10.30
2022-11-08T00:04:00.827Z,10.20
2022-11-08T00:06:47.141Z,10.17
2022-11-08T00:09:33.686Z,9.68
2022-11-08T00:12:19.740Z,9.76
2022-11-08T00:14:47.387Z,9.72
2022-11-08T00:17:15.634Z,9.55
2022-11-08T00:19:43.087Z,9.43
2022-11-08T00:22:11.249Z,9.89
2022-11-08T00:24:38.655Z,9.78
2022-11-08T00:27:07.462Z,9.80
2022-11-08T00:29:36.053Z,9.69
2022-11-08T00:32:04.642Z,9.73
2022-11-08T00:34:34.846Z,9.63
2022-11-08T00:37:02.489Z,9.31
2022-11-08T00:39:29.786Z,9.43
2022-11-08T00:41:57.132Z,9.73
2022-11-08T00:44:24.752Z,9.83
2022-11-08T00:46:52.198Z,9.81
2022-11-08T00:49:19.659Z,9.49
2022-11-08T00:51:47.336Z,9.52
2022-11-08T00:54:16.272Z,9.36
2022-11-08T00:56:43.748Z,9.51
2022-11-08T00:59:12.803Z,9.53
2022-11-08T01:01:40.522Z,9.39
2022-11-08T01:04:08.215Z,8.93
2022-11-08T01:06:35.840Z,9.31
2022-11-08T01:09:04.893Z,9.10
2022-11-08T01:11:32.212Z,9.09
2022-11-08T01:14:00.584Z,9.16
2022-11-08T01:16:29.649Z,8.76
2022-11-08T01:18:57.120Z,9.26
2022-11-08T01:21:24.877Z,9.39
2022-11-08T01:23:52.279Z,9.10
2022-11-08T01:26:21.359Z,9.38
2022-11-08T01:28:49.092Z,9.13
2022-11-08T01:31:21.374Z,9.43
2022-11-08T01:33:51.500Z,9.09
2022-11-08T01:36:21.255Z,9.27
2022-11-08T01:38:48.852Z,8.90
2022-11-08T01:41:16.387Z,8.96
2022-11-08T01:43:45.646Z,8.79
2022-11-08T01:46:19.639Z,8.62
2022-11-08T01:48:59.110Z,8.56
2022-11-08T01:51:29.556Z,8.84
2022-11-08T01:53:57.365Z,8.71
2022-11-08T01:56:24.711Z,8.78
2022-11-08T01:58:52.300Z,9.00
2022-11-08T02:01:19.670Z,8.52
2022-11-08T02:03:47.458Z,8.97
2022-11-08T02:06:14.811Z,8.66
2022-11-08T02:08:42.946Z,8.60
2022-11-08T02:11:13.101Z,8.67
2022-11-08T02:13:40.421Z,9.19
2022-11-08T02:16:11.761Z,9.30
2022-11-08T02:18:39.368Z,9.46
2022-11-08T02:21:21.300Z,9.52
2022-11-08T02:23:58.910Z,9.54
2022-11-08T02:26:29.448Z,9.06
2022-11-08T02:28:57.194Z,9.38
2022-11-08T02:31:24.514Z,8.93
2022-11-08T02:33:51.859Z,9.11
2022-11-08T02:36:22.710Z,8.93
2022-11-08T02:38:54.706Z,8.96
2022-11-08T02:41:22.283Z,9.24
2022-11-08T02:43:49.605Z,9.10
2022-11-08T02:46:16.934Z,8.97
2022-11-08T02:48:44.546Z,8.92
2022-11-08T02:51:11.867Z,9.29
2022-11-08T02:53:39.206Z,8.88
2022-11-08T02:56:06.952Z,9.22
2022-11-08T02:58:34.247Z,9.28
2022-11-08T03:01:01.694Z,9.10
2022-11-08T03:03:29.389Z,9.13
2022-11-08T03:05:57.160Z,9.03
2022-11-08T03:08:24.448Z,9.40
2022-11-08T03:10:52.075Z,8.85
2022-11-08T03:13:19.392Z,8.87
2022-11-08T03:15:46.734Z,9.12
2022-11-08T03:18:14.463Z,9.20
2022-11-08T03:20:41.922Z,8.73
2022-11-08T03:23:09.279Z,9.00
2022-11-08T03:25:36.858Z,9.37
2022-11-08T03:28:08.604Z,9.44
2022-11-08T03:30:36.223Z,9.53
2022-11-08T03:33:03.853Z,9.61
2022-11-08T03:35:31.585Z,9.43
2022-11-08T03:37:58.959Z,9.25
2022-11-08T03:40:26.738Z,9.12
2022-11-08T03:42:56.206Z,8.67
2022-11-08T03:45:23.505Z,8.37
2022-11-08T03:47:51.159Z,8.99
2022-11-08T03:50:18.606Z,9.39
2022-11-08T03:52:54.155Z,8.79
2022-11-08T03:55:23.269Z,8.91
2022-11-08T03:57:50.727Z,8.89
2022-11-08T04:00:20.207Z,9.05
2022-11-08T04:02:47.803Z,9.08
2022-11-08T04:05:15.317Z,9.27
2022-11-08T04:07:43.199Z,8.93
2022-11-08T04:10:10.975Z,8.73
2022-11-08T04:13:02.795Z,9.05
2022-11-08T04:15:31.030Z,9.21
2022-11-08T04:18:18.247Z,8.95
2022-11-08T04:21:05.893Z,9.01
2022-11-08T04:23:34.405Z,9.04
2022-11-08T04:26:04.049Z,9.19
2022-11-08T04:28:32.252Z,9.10
2022-11-08T04:31:02.800Z,8.91
2022-11-08T04:33:30.524Z,9.10
2022-11-08T04:36:04.146Z,8.62
2022-11-08T04:38:31.978Z,8.76
2022-11-08T04:41:06.571Z,8.82
2022-11-08T04:43:34.173Z,8.79
2022-11-08T04:46:09.103Z,8.87
2022-11-08T04:48:36.704Z,8.95
2022-11-08T04:51:05.324Z,8.69
2022-11-08T04:53:32.666Z,8.22
2022-11-08T04:56:01.945Z,8.37
2022-11-08T04:58:32.828Z,8.81
2022-11-08T05:01:01.711Z,9.16
2022-11-08T05:03:29.814Z,8.83
2022-11-08T05:06:01.219Z,9.02
2022-11-08T05:08:28.816Z,8.46
2022-11-08T05:11:03.202Z,8.88
2022-11-08T05:13:30.835Z,8.61
2022-11-08T05:16:02.266Z,8.88
2022-11-08T05:18:30.113Z,8.76
2022-11-08T05:21:17.039Z,8.87
2022-11-08T05:23:44.413Z,9.03
2022-11-08T05:26:11.988Z,9.06
2022-11-08T05:28:40.488Z,9.17
2022-11-08T05:31:07.915Z,9.27
2022-11-08T05:33:35.500Z,9.23
2022-11-08T05:36:06.001Z,9.37
2022-11-08T05:38:33.784Z,9.42
2022-11-08T05:41:05.683Z,9.42
2022-11-08T05:43:33.019Z,9.49
2022-11-08T05:46:00.717Z,9.43
2022-11-08T05:48:28.040Z,9.25
2022-11-08T05:50:55.483Z,9.46
2022-11-08T05:53:23.132Z,9.52
2022-11-08T05:55:50.462Z,9.66
2022-11-08T05:58:17.805Z,9.64
2022-11-08T06:00:45.392Z,9.16
2022-11-08T06:03:13.122Z,9.48
2022-11-08T06:05:40.478Z,9.24
2022-11-08T06:08:07.832Z,9.02
2022-11-08T06:10:35.424Z,9.22
2022-11-08T06:13:02.758Z,9.62
2022-11-08T06:15:30.091Z,9.46
2022-11-08T06:18:03.073Z,8.59
2022-11-08T06:20:30.610Z,9.23
2022-11-08T06:22:58.172Z,9.06
2022-11-08T06:25:25.497Z,8.77
2022-11-08T06:27:52.857Z,9.20
2022-11-08T06:30:20.438Z,9.32
2022-11-08T06:32:47.839Z,9.40
2022-11-08T06:35:15.980Z,9.67
2022-11-08T06:37:44.494Z,9.63
2022-11-08T06:40:11.976Z,9.80
2022-11-08T06:42:39.368Z,9.62
2022-11-08T06:45:07.417Z,9.38
2022-11-08T06:47:34.809Z,9.81
2022-11-08T06:50:02.173Z,9.83
2022-11-08T06:52:29.831Z,9.91
2022-11-08T06:54:57.151Z,9.39
2022-11-08T06:57:24.529Z,9.94
2022-11-08T06:59:52.136Z,9.58
2022-11-08T07:02:19.784Z,9.77
2022-11-08T07:04:47.183Z,9.67
2022-11-08T07:07:15.004Z,9.73
2022-11-08T07:09:43.809Z,10.26
2022-11-08T07:12:11.968Z,10.19
2022-11-08T07:14:39.612Z,10.03
2022-11-08T07:17:06.978Z,10.55
2022-11-08T07:19:34.339Z,10.45
2022-11-08T07:22:01.949Z,10.21
2022-11-08T07:24:29.319Z,10.75
2022-11-08T07:26:56.674Z,10.71
2022-11-08T07:29:24.247Z,10.49
2022-11-08T07:31:51.673Z,10.61
2022-11-08T07:34:19.247Z,10.43
2022-11-08T07:36:47.072Z,10.57
2022-11-08T07:39:14.391Z,10.55
2022-11-08T07:41:41.794Z,11.04
2022-11-08T07:44:09.397Z,10.80
2022-11-08T07:46:36.840Z,10.99
2022-11-08T07:49:04.174Z,10.74
2022-11-08T07:51:31.801Z,11.04
2022-11-08T07:54:03.014Z,11.14
2022-11-08T07:56:30.898Z,11.16
2022-11-08T07:58:58.497Z,11.26
2022-11-08T08:01:25.899Z,11.29
2022-11-08T08:03:53.588Z,10.77
2022-11-08T08:06:22.051Z,11.10
2022-11-08T08:08:49.389Z,11.46
2022-11-08T08:11:17.084Z,11.35
2022-11-08T08:13:44.468Z,11.70
2022-11-08T08:16:11.812Z,11.80
2022-11-08T08:18:41.415Z,10.20
2022-11-08T08:21:08.722Z,9.18
2022-11-08T08:23:36.090Z,9.85
2022-11-08T08:26:03.680Z,7.86
2022-11-08T08:28:31.116Z,9.13
2022-11-08T08:30:58.464Z,10.37
2022-11-08T08:33:29.272Z,10.93
2022-11-08T08:35:57.217Z,9.90
2022-11-08T08:38:24.620Z,10.91
2022-11-08T08:40:52.353Z,11.46
2022-11-08T08:43:20.425Z,11.89
2022-11-08T08:45:48.942Z,11.40
2022-11-08T08:48:16.655Z,11.44
2022-11-08T08:50:44.000Z,11.39
2022-11-08T08:53:14.016Z,10.93
2022-11-08T08:55:43.719Z,11.48
2022-11-08T08:58:12.051Z,11.68
2022-11-08T09:03:26.994Z,12.00
2022-11-08T09:05:54.321Z,11.91
2022-11-08T09:08:21.739Z,12.14
2022-11-08T09:10:53.669Z,12.04
2022-11-08T09:13:21.475Z,12.19
2022-11-08T09:15:49.259Z,12.08
2022-11-08T09:18:17.648Z,12.16
2022-11-08T09:20:45.083Z,11.69
2022-11-08T09:23:12.807Z,12.38
2022-11-08T09:25:40.301Z,12.28
2022-11-08T09:28:09.336Z,12.55
2022-11-08T09:30:36.948Z,12.27
2022-11-08T09:33:05.246Z,12.44
2022-11-08T09:35:33.426Z,11.53
2022-11-08T09:38:01.070Z,11.81
2022-11-08T09:40:43.102Z,11.90
2022-11-08T09:43:50.476Z,12.07
2022-11-08T09:46:53.875Z,12.15
2022-11-08T09:49:22.511Z,12.65
2022-11-08T09:51:49.955Z,12.91
2022-11-08T09:54:37.463Z,13.26
2022-11-08T09:57:05.450Z,13.03
2022-11-08T09:59:47.996Z,13.35
2022-11-08T10:02:18.214Z,12.94
2022-11-08T10:05:04.464Z,12.89
2022-11-08T10:07:56.179Z,11.79
2022-11-08T10:10:36.076Z,12.17
2022-11-08T10:13:26.753Z,11.76
2022-11-08T10:16:17.007Z,11.08
2022-11-08T10:19:26.812Z,11.08
2022-11-08T10:22:07.875Z,10.64
2022-11-08T10:24:39.043Z,10.92
2022-11-08T10:27:13.791Z,11.06
2022-11-08T10:29:43.646Z,9.95
2022-11-08T10:32:12.973Z,10.47
2022-11-08T10:35:26.742Z,9.96
2022-11-08T10:37:54.788Z,11.04
2022-11-08T10:40:36.767Z,11.55
2022-11-08T10:43:17.283Z,11.49
2022-11-08T10:45:44.692Z,11.28
2022-11-08T10:48:12.476Z,11.08
2022-11-08T10:50:46.701Z,11.30
2022-11-08T10:53:35.047Z,11.77
2022-11-08T10:56:04.353Z,11.90
2022-11-08T10:58:41.951Z,12.00
2022-11-08T11:01:25.775Z,12.46
2022-11-08T11:03:53.588Z,12.16
2022-11-08T11:06:30.829Z,12.49
2022-11-08T11:09:00.029Z,12.19
2022-11-08T11:11:33.708Z,12.70
2022-11-08T11:14:21.793Z,12.94
2022-11-08T11:17:14.320Z,12.32
2022-11-08T11:19:44.374Z,12.82
2022-11-08T11:22:12.236Z,13.04
2022-11-08T11:24:50.734Z,13.16
2022-11-08T11:27:36.373Z,12.81
2022-11-08T11:30:33.814Z,12.25
2022-11-08T11:33:23.504Z,12.84
2022-11-08T11:36:13.862Z,12.69
2022-11-08T11:38:55.488Z,12.77
2022-11-08T11:41:26.405Z,12.75
2022-11-08T11:44:03.837Z,12.58
2022-11-08T11:47:02.327Z,13.06
2022-11-08T11:49:30.883Z,12.19
2022-11-08T11:51:58.271Z,12.91
2022-11-08T11:54:30.472Z,13.08
2022-11-08T11:57:21.280Z,12.85
2022-11-08T12:00:01.790Z,13.46
2022-11-08T12:03:01.619Z,13.78
2022-11-08T12:05:31.119Z,12.16
2022-11-08T12:08:10.386Z,12.42
2022-11-08T12:11:03.542Z,13.22
2022-11-08T12:13:43.510Z,12.59
2022-11-08T12:16:31.841Z,12.93
2022-11-08T12:19:07.420Z,12.90
2022-11-08T12:21:59.804Z,11.71
2022-11-08T12:24:33.891Z,12.68
2022-11-08T12:27:26.023Z,12.94
2022-11-08T12:30:08.766Z,13.42
2022-11-08T12:32:58.655Z,13.43
2022-11-08T12:35:51.562Z,13.19
2022-11-08T12:38:33.292Z,12.38
2022-11-08T12:41:21.994Z,12.39
2022-11-08T12:44:04.729Z,12.92
2022-11-08T12:46:34.426Z,13.23
2022-11-08T12:49:26.956Z,13.72
2022-11-08T12:52:17.502Z,13.50
2022-11-08T12:54:57.369Z,13.08
2022-11-08T12:57:28.357Z,12.75
2022-11-08T13:00:02.346Z,13.25
2022-11-08T13:02:38.885Z,13.45
2022-11-08T13:05:06.365Z,12.82
2022-11-08T13:07:35.449Z,12.94
2022-11-08T13:10:23.067Z,12.64
2022-11-08T13:13:07.933Z,12.10
2022-11-08T13:15:35.372Z,13.12
2022-11-08T13:18:11.540Z,12.42
2022-11-08T13:20:46.171Z,12.81
2022-11-08T13:23:15.380Z,13.28
2022-11-08T13:25:43.374Z,13.54
2022-11-08T13:28:36.676Z,13.24
2022-11-08T13:31:27.329Z,13.35
2022-11-08T13:34:00.742Z,12.78
2022-11-08T13:36:34.900Z,13.48
2022-11-08T13:39:18.748Z,13.58
2022-11-08T13:42:25.976Z,13.80
2022-11-08T13:44:56.368Z,14.10
2022-11-08T13:47:32.942Z,13.73
2022-11-08T13:50:28.439Z,13.93
2022-11-08T13:53:20.800Z,13.36
2022-11-08T13:55:49.814Z,13.47
2022-11-08T13:58:54.555Z,14.25
2022-11-08T14:01:21.816Z,13.98
2022-11-08T14:03:49.389Z,14.39
2022-11-08T14:06:25.726Z,14.66
2022-11-08T14:09:08.728Z,14.87
2022-11-08T14:11:52.307Z,14.40
2022-11-08T14:14:44.673Z,14.53
2022-11-08T14:17:39.771Z,14.70
2022-11-08T14:20:18.083Z,14.71
2022-11-08T14:22:49.889Z,14.72
2022-11-08T14:25:19.346Z,14.75
2022-11-08T14:27:46.662Z,14.56
2022-11-08T14:30:17.452Z,14.76
2022-11-08T14:32:45.156Z,14.70
2022-11-08T14:35:24.428Z,14.57
2022-11-08T14:37:55.178Z,14.64
2022-11-08T14:40:27.771Z,14.56
2022-11-08T14:42:55.593Z,14.37
2022-11-08T14:45:25.884Z,14.40
2022-11-08T14:47:57.031Z,13.98
2022-11-08T14:50:42.978Z,14.16
2022-11-08T14:53:21.611Z,14.24
2022-11-08T14:56:16.789Z,14.30
2022-11-08T14:58:44.502Z,14.29
2022-11-08T15:01:12.471Z,13.62
2022-11-08T15:03:45.425Z,13.45
2022-11-08T15:06:14.408Z,13.01
2022-11-08T15:08:51.839Z,12.18
2022-11-08T15:11:30.631Z,12.00
2022-11-08T15:14:05.677Z,12.03
2022-11-08T15:16:40.253Z,11.98
2022-11-08T15:19:34.791Z,11.86
2022-11-08T15:22:22.021Z,11.75
2022-11-08T15:24:51.223Z,12.11
2022-11-08T15:27:18.809Z,11.69
2022-11-08T15:29:54.284Z,11.79
2022-11-08T15:32:22.052Z,11.94
2022-11-08T15:34:49.369Z,12.11
2022-11-08T15:37:34.233Z,12.20
2022-11-08T15:40:28.182Z,11.72
2022-11-08T15:42:55.564Z,10.95
2022-11-08T15:45:28.877Z,10.74
2022-11-08T15:48:08.513Z,10.43
2022-11-08T15:50:36.517Z,10.64
2022-11-08T15:53:04.018Z,10.52
2022-11-08T15:55:35.203Z,11.34
2022-11-08T15:58:02.993Z,10.65
2022-11-08T16:00:32.002Z,11.13
2022-11-08T16:02:59.619Z,11.36
2022-11-08T16:05:28.691Z,11.19
2022-11-08T16:07:56.043Z,11.23
2022-11-08T16:10:34.816Z,11.29
2022-11-08T16:13:02.590Z,10.78
2022-11-08T16:15:32.276Z,11.06
2022-11-08T16:18:00.594Z,10.74
2022-11-08T16:20:31.664Z,10.92
2022-11-08T16:23:00.727Z,11.67
2022-11-08T16:25:28.536Z,11.37
2022-11-08T16:28:02.644Z,10.80
2022-11-08T16:30:32.507Z,10.96
2022-11-08T16:33:01.013Z,10.79
2022-11-08T16:35:28.392Z,11.54
2022-11-08T16:37:56.003Z,11.55
2022-11-08T16:40:24.232Z,11.28
2022-11-08T16:42:52.655Z,11.63
2022-11-08T16:45:37.246Z,11.76
2022-11-08T16:48:14.901Z,11.59
2022-11-08T16:50:42.615Z,11.54
2022-11-08T16:53:20.249Z,11.61
2022-11-08T16:55:47.987Z,11.13
2022-11-08T16:58:15.527Z,11.40
2022-11-08T17:00:43.374Z,10.80
2022-11-08T17:03:21.563Z,11.48
2022-11-08T17:05:49.067Z,10.48
2022-11-08T17:08:17.112Z,10.71
2022-11-08T17:10:44.726Z,11.30
2022-11-08T17:13:16.299Z,10.41
2022-11-08T17:15:44.190Z,10.41
2022-11-08T17:18:18.800Z,11.10
2022-11-08T17:20:46.780Z,10.58
2022-11-08T17:23:14.203Z,9.97
2022-11-08T17:25:43.066Z,10.68
2022-11-08T17:28:11.820Z,10.91
2022-11-08T17:30:44.216Z,10.53
2022-11-08T17:33:12.791Z,10.09
2022-11-08T17:35:43.862Z,10.26
2022-11-08T17:38:12.788Z,10.07
2022-11-08T17:40:42.311Z,10.27
2022-11-08T17:43:09.939Z,11.10
2022-11-08T17:45:37.553Z,11.06
2022-11-08T17:48:04.911Z,11.15
2022-11-08T17:50:32.268Z,11.02
2022-11-08T17:52:59.931Z,10.96
2022-11-08T17:55:27.269Z,10.84
2022-11-08T17:57:54.584Z,10.98
2022-11-08T18:00:22.184Z,11.69
2022-11-08T18:02:49.778Z,11.54
2022-11-08T18:05:17.206Z,11.85
2022-11-08T18:07:45.125Z,12.05
2022-11-08T18:10:12.769Z,11.26
2022-11-08T18:12:40.092Z,11.57
2022-11-08T18:15:07.877Z,11.92
2022-11-08T18:17:35.929Z,11.26
2022-11-08T18:20:03.382Z,11.58
2022-11-08T18:22:30.732Z,10.62
2022-11-08T18:24:58.300Z,11.48
2022-11-08T18:27:25.819Z,10.67
2022-11-08T18:29:53.122Z,10.82
2022-11-08T18:32:20.732Z,10.98
2022-11-08T18:34:48.936Z,11.15
2022-11-08T18:37:16.329Z,11.71
2022-11-08T18:39:43.947Z,11.45
2022-11-08T18:42:11.272Z,11.76
2022-11-08T18:44:38.601Z,11.76
2022-11-08T18:47:06.222Z,11.58
2022-11-08T18:49:33.566Z,11.84
2022-11-08T18:52:01.787Z,12.46
2022-11-08T18:54:29.413Z,12.28
2022-11-08T18:56:56.770Z,11.48
2022-11-08T18:59:24.105Z,11.69
2022-11-08T19:01:51.755Z,11.92
2022-11-08T19:04:19.132Z,11.69
2022-11-08T19:06:51.503Z,12.18
2022-11-08T19:09:22.261Z,11.89
2022-11-08T19:11:49.611Z,11.63
2022-11-08T19:14:17.023Z,11.70
2022-11-08T19:16:44.669Z,12.10
2022-11-08T19:19:12.099Z,11.86
2022-11-08T19:21:41.766Z,12.11
2022-11-08T19:24:11.003Z,12.40
2022-11-08T19:26:41.386Z,12.29
2022-11-08T19:29:10.690Z,11.32
2022-11-08T19:31:39.010Z,12.23
2022-11-08T19:34:06.419Z,12.34
2022-11-08T19:36:34.261Z,11.68
2022-11-08T19:39:01.633Z,11.80
2022-11-08T19:41:29.023Z,11.88
2022-11-08T19:43:56.696Z,11.94
2022-11-08T19:46:26.767Z,11.52
2022-11-08T19:48:54.080Z,11.73
2022-11-08T19:51:23.354Z,12.22
2022-11-08T19:53:50.803Z,11.91
2022-11-08T19:56:18.825Z,11.54
2022-11-08T19:58:46.488Z,11.94
2022-11-08T20:01:17.360Z,11.72
2022-11-08T20:03:45.441Z,11.43
2022-11-08T20:06:14.795Z,11.77
2022-11-08T20:08:42.159Z,10.97
2022-11-08T20:11:13.808Z,10.79
2022-11-08T20:13:41.271Z,10.68
2022-11-08T20:16:20.085Z,11.69
2022-11-08T20:18:47.723Z,11.65
2022-11-08T20:21:15.959Z,11.39
2022-11-08T20:23:43.506Z,11.08
2022-11-08T20:26:19.529Z,11.49
2022-11-08T20:28:56.003Z,11.12
2022-11-08T20:31:24.422Z,11.24
2022-11-08T20:33:55.265Z,11.50
2022-11-08T20:36:23.484Z,12.12
2022-11-08T20:38:56.226Z,11.91
2022-11-08T20:41:23.694Z,11.87
2022-11-08T20:43:51.291Z,11.97
2022-11-08T20:46:19.730Z,11.63
2022-11-08T20:48:51.435Z,12.04
2022-11-08T20:51:19.930Z,11.89
2022-11-08T20:53:47.414Z,11.63
2022-11-08T20:56:19.329Z,11.92
2022-11-08T20:58:47.699Z,11.89
2022-11-08T21:01:17.650Z,11.70
2022-11-08T21:03:45.670Z,12.24
2022-11-08T21:06:16.106Z,11.73
2022-11-08T21:08:59.267Z,12.26
2022-11-08T21:11:30.542Z,12.49
2022-11-08T21:13:58.104Z,12.50
2022-11-08T21:16:47.008Z,12.67
2022-11-08T21:19:13.185Z,11.54
2022-11-08T21:21:40.595Z,11.83
2022-11-08T21:24:08.121Z,11.81
2022-11-08T21:26:36.756Z,11.91
2022-11-08T21:29:04.959Z,12.47
2022-11-08T21:31:32.826Z,12.57
2022-11-08T21:34:00.594Z,12.54
2022-11-08T21:36:29.206Z,12.18
2022-11-08T21:38:56.665Z,12.42
2022-11-08T21:41:24.263Z,12.43
2022-11-08T21:43:51.621Z,12.51
2022-11-08T21:46:23.270Z,12.62
2022-11-08T21:49:11.427Z,12.14
2022-11-08T21:51:38.767Z,12.35
2022-11-08T21:54:06.574Z,12.54
2022-11-08T21:56:34.297Z,12.04
2022-11-08T21:59:01.697Z,12.02
2022-11-08T22:01:30.926Z,10.34
2022-11-08T22:03:59.473Z,11.39
2022-11-08T22:06:27.605Z,11.78
2022-11-08T22:08:55.003Z,10.98
2022-11-08T22:11:22.575Z,11.61
2022-11-08T22:13:49.918Z,11.78
2022-11-08T22:16:17.289Z,11.54
2022-11-08T22:21:38.024Z,12.28
2022-11-08T22:24:09.670Z,12.14
2022-11-08T22:26:37.326Z,11.61
2022-11-08T22:29:04.772Z,11.98
2022-11-08T22:31:32.450Z,12.41
2022-11-08T22:33:59.893Z,12.39
2022-11-08T22:36:27.798Z,11.55
2022-11-08T22:38:55.622Z,12.21
2022-11-08T22:41:23.069Z,11.86
2022-11-08T22:43:50.463Z,11.61
2022-11-08T22:46:18.123Z,11.05
2022-11-08T22:48:45.585Z,11.81
2022-11-08T22:51:13.031Z,11.09
2022-11-08T22:53:41.343Z,10.92
2022-11-08T22:56:11.469Z,11.44
2022-11-08T22:58:39.398Z,10.95
2022-11-08T23:01:13.918Z,11.24
2022-11-08T23:03:43.637Z,10.50
2022-11-08T23:06:11.233Z,10.69
2022-11-08T23:08:38.786Z,11.30
2022-11-08T23:11:25.092Z,11.65
2022-11-08T23:14:11.539Z,11.43
2022-11-08T23:16:40.496Z,11.66
2022-11-08T23:19:37.632Z,11.60
2022-11-08T23:22:24.747Z,11.42
2022-11-08T23:24:52.337Z,11.77
2022-11-08T23:27:38.669Z,11.61
2022-11-08T23:30:25.544Z,11.94
2022-11-08T23:32:52.911Z,12.14
2022-11-08T23:35:20.707Z,11.70
2022-11-08T23:37:48.101Z,12.36
2022-11-08T23:40:35.084Z,11.97
2022-11-08T23:43:24.600Z,11.47
2022-11-08T23:45:51.962Z,10.77
2022-11-08T23:48:19.637Z,11.72
2022-11-08T23:50:53.864Z,10.71
2022-11-08T23:53:22.497Z,11.67
2022-11-08T23:55:50.048Z,11.36
2022-11-08T23:58:17.957Z,10.75
